createdAt,value
2019-02-16T00:00:46.772Z,15.8
2019-02-16T00:01:49.211Z,15.8
2019-02-16T00:02:51.366Z,15.8
2019-02-16T00:03:53.524Z,15.8
2019-02-16T00:04:55.398Z,15.8
2019-02-16T00:05:57.575Z,15.8
2019-02-16T00:06:59.739Z,15.8
2019-02-16T00:08:02.166Z,16
2019-02-16T00:09:04.585Z,15.9
2019-02-16T00:10:06.739Z,16
2019-02-16T00:11:09.151Z,16
2019-02-16T00:12:11.577Z,15.9
2019-02-16T00:13:13.995Z,16.1
2019-02-16T00:14:16.137Z,15.9
2019-02-16T00:15:18.052Z,16.1
2019-02-16T00:16:20.206Z,15.9
2019-02-16T00:17:22.639Z,16
2019-02-16T00:18:24.812Z,16.1
2019-02-16T00:19:27.239Z,16.1
2019-02-16T00:20:29.399Z,16
2019-02-16T00:21:31.307Z,15.9
2019-02-16T00:22:33.472Z,15.9
2019-02-16T00:23:35.904Z,16.1
2019-02-16T00:24:38.331Z,15.9
2019-02-16T00:25:40.217Z,15.9
2019-02-16T00:26:42.635Z,16
2019-02-16T00:27:44.774Z,16.1
2019-02-16T00:28:47.470Z,15.8
2019-02-16T00:29:49.904Z,16.1
2019-02-16T00:30:52.336Z,16
2019-02-16T00:31:54.772Z,15.9
2019-02-16T00:32:57.211Z,16
2019-02-16T00:33:59.644Z,15.8
2019-02-16T00:35:01.811Z,16.1
2019-02-16T00:36:04.243Z,15.9
2019-02-16T00:37:06.673Z,15.9
2019-02-16T00:38:08.823Z,16
2019-02-16T00:39:10.987Z,15.9
2019-02-16T00:40:13.131Z,15.8
2019-02-16T00:41:15.005Z,15.9
2019-02-16T00:42:17.181Z,15.9
2019-02-16T00:43:19.605Z,15.9
2019-02-16T00:44:21.746Z,16
2019-02-16T00:45:24.182Z,15.9
2019-02-16T00:46:26.351Z,15.9
2019-02-16T00:47:28.231Z,15.9
2019-02-16T00:48:30.672Z,15.9
2019-02-16T00:49:33.111Z,15.9
2019-02-16T00:50:35.256Z,16
2019-02-16T00:51:37.404Z,16
2019-02-16T00:52:39.875Z,16
2019-02-16T00:53:42.043Z,16
2019-02-16T00:54:44.201Z,16.1
2019-02-16T00:55:46.346Z,16
2019-02-16T00:56:48.729Z,15.8
2019-02-16T00:57:51.154Z,16
2019-02-16T00:58:53.587Z,15.9
2019-02-16T00:59:56.021Z,16.1
2019-02-16T01:00:58.435Z,16
2019-02-16T01:02:00.603Z,16
2019-02-16T01:03:03.089Z,15.9
2019-02-16T01:04:05.250Z,16
2019-02-16T01:05:07.394Z,16.1
2019-02-16T01:06:09.522Z,16
2019-02-16T01:07:11.942Z,15.9
2019-02-16T01:08:14.377Z,16
2019-02-16T01:09:16.814Z,16
2019-02-16T01:10:19.245Z,15.9
2019-02-16T01:11:21.679Z,16
2019-02-16T01:12:23.806Z,15.8
2019-02-16T01:13:26.248Z,15.9
2019-02-16T01:14:28.104Z,16
2019-02-16T01:15:30.260Z,16.1
2019-02-16T01:16:32.420Z,16
2019-02-16T01:17:34.836Z,15.9
2019-02-16T01:18:37.269Z,15.9
2019-02-16T01:19:39.417Z,16
2019-02-16T01:20:41.551Z,16.1
2019-02-16T01:21:43.724Z,16.1
2019-02-16T01:22:45.866Z,16.1
2019-02-16T01:23:48.053Z,16.1
2019-02-16T01:24:50.496Z,16.1
2019-02-16T01:25:52.636Z,16
2019-02-16T01:26:55.079Z,16
2019-02-16T01:27:57.248Z,16.1
2019-02-16T01:28:59.689Z,16.1
2019-02-16T01:30:01.557Z,16.1
2019-02-16T01:31:03.981Z,16.1
2019-02-16T01:32:06.402Z,16.1
2019-02-16T01:33:08.550Z,16.1
2019-02-16T01:34:10.974Z,16.1
2019-02-16T01:35:13.140Z,16.1
2019-02-16T01:36:15.613Z,16.1
2019-02-16T01:37:17.756Z,16.2
2019-02-16T01:38:20.191Z,16.1
2019-02-16T01:39:22.367Z,16.1
2019-02-16T01:40:24.798Z,16.2
2019-02-16T01:41:27.240Z,16.2
2019-02-16T01:42:29.391Z,16.2
2019-02-16T01:43:31.548Z,16.2
2019-02-16T01:44:33.973Z,16.1
2019-02-16T01:45:36.130Z,16.2
2019-02-16T01:46:38.276Z,16.2
2019-02-16T01:47:40.699Z,16.2
2019-02-16T01:48:42.587Z,16.1
2019-02-16T01:49:45.011Z,16.2
2019-02-16T01:50:47.145Z,16.2
2019-02-16T01:51:49.319Z,16.2
2019-02-16T01:52:51.460Z,16.1
2019-02-16T01:53:53.895Z,16.2
2019-02-16T01:54:56.310Z,16.2
2019-02-16T01:55:58.756Z,16.2
2019-02-16T01:57:00.910Z,16.2
2019-02-16T01:58:03.035Z,16.2
2019-02-16T01:59:04.910Z,16.2
2019-02-16T02:00:06.795Z,16.2
2019-02-16T02:01:08.664Z,16.2
2019-02-16T02:02:11.087Z,16.2
2019-02-16T02:03:13.435Z,16.2
2019-02-16T02:04:15.588Z,16.2
2019-02-16T02:05:18.021Z,16.2
2019-02-16T02:06:20.445Z,16.3
2019-02-16T02:07:22.874Z,16.3
2019-02-16T02:08:25.320Z,16.2
2019-02-16T02:09:27.752Z,16.2
2019-02-16T02:10:29.936Z,16.2
2019-02-16T02:11:32.363Z,16.2
2019-02-16T02:12:34.235Z,16.2
2019-02-16T02:13:36.667Z,16.2
2019-02-16T02:14:39.102Z,16.2
2019-02-16T02:15:41.516Z,16.2
2019-02-16T02:16:44.276Z,16.2
2019-02-16T02:17:46.152Z,16.2
2019-02-16T02:18:48.573Z,16.2
2019-02-16T02:19:51.007Z,16.3
2019-02-16T02:20:53.155Z,16.2
2019-02-16T02:21:55.328Z,16.2
2019-02-16T02:22:57.747Z,16.2
2019-02-16T02:23:59.659Z,16.3
2019-02-16T02:25:02.080Z,16.2
2019-02-16T02:26:03.943Z,16.3
2019-02-16T02:27:06.376Z,16.3
2019-02-16T02:28:08.796Z,16.3
2019-02-16T02:29:10.942Z,16.3
2019-02-16T02:30:13.145Z,16.3
2019-02-16T02:31:15.289Z,16.3
2019-02-16T02:32:17.714Z,16.3
2019-02-16T02:33:20.134Z,16.3
2019-02-16T02:34:22.578Z,16.3
2019-02-16T02:35:25.005Z,16.3
2019-02-16T02:36:27.442Z,16.3
2019-02-16T02:37:29.301Z,16.3
2019-02-16T02:38:31.202Z,16.3
2019-02-16T02:39:33.091Z,16.3
2019-02-16T02:40:35.260Z,16.3
2019-02-16T02:41:37.136Z,16.3
2019-02-16T02:42:39.291Z,16.4
2019-02-16T02:43:41.183Z,16.3
2019-02-16T02:44:43.342Z,16.3
2019-02-16T02:45:45.774Z,16.3
2019-02-16T02:46:48.204Z,16.2
2019-02-16T02:47:50.431Z,16.3
2019-02-16T02:48:52.606Z,16.4
2019-02-16T02:49:55.035Z,16.3
2019-02-16T02:50:57.183Z,16.4
2019-02-16T02:51:59.612Z,16.3
2019-02-16T02:53:01.511Z,16.4
2019-02-16T02:54:03.692Z,16.3
2019-02-16T02:55:05.855Z,16.3
2019-02-16T02:56:07.736Z,16.3
2019-02-16T02:57:09.881Z,16.3
2019-02-16T02:58:12.057Z,16.3
2019-02-16T02:59:14.202Z,16.3
2019-02-16T03:00:16.625Z,16.3
2019-02-16T03:01:19.048Z,16.3
2019-02-16T03:02:21.465Z,16.3
2019-02-16T03:03:23.348Z,16.4
2019-02-16T03:04:25.818Z,16.3
2019-02-16T03:05:27.964Z,16.3
2019-02-16T03:06:30.384Z,16.3
2019-02-16T03:07:32.549Z,16.3
2019-02-16T03:08:34.710Z,16.2
2019-02-16T03:09:37.134Z,16.3
2019-02-16T03:10:39.316Z,16.3
2019-02-16T03:11:41.182Z,16.3
2019-02-16T03:12:43.614Z,16.3
2019-02-16T03:13:46.056Z,16.3
2019-02-16T03:14:48.729Z,16.3
2019-02-16T03:15:50.882Z,16.3
2019-02-16T03:16:53.311Z,16.3
2019-02-16T03:17:55.468Z,16.3
2019-02-16T03:18:57.892Z,16.3
2019-02-16T03:20:00.332Z,16.3
2019-02-16T03:21:02.737Z,16.3
2019-02-16T03:22:04.897Z,16.4
2019-02-16T03:23:07.028Z,16.3
2019-02-16T03:24:09.184Z,16.3
2019-02-16T03:25:11.603Z,16.3
2019-02-16T03:26:13.757Z,16.4
2019-02-16T03:27:15.638Z,16.4
2019-02-16T03:28:18.075Z,16.3
2019-02-16T03:29:19.664Z,16.4
2019-02-16T03:30:22.106Z,16.4
2019-02-16T03:31:24.543Z,16.3
2019-02-16T03:32:27.013Z,16.4
2019-02-16T03:33:29.145Z,16.3
2019-02-16T03:34:31.565Z,16.3
2019-02-16T03:35:33.979Z,16.4
2019-02-16T03:36:36.134Z,16.3
2019-02-16T03:37:38.022Z,16.3
2019-02-16T03:38:39.920Z,16.3
2019-02-16T03:39:42.085Z,16.2
2019-02-16T03:40:44.242Z,16.2
2019-02-16T03:41:46.402Z,16.3
2019-02-16T03:42:49.040Z,16.2
2019-02-16T03:43:51.463Z,16.4
2019-02-16T03:44:53.881Z,16.2
2019-02-16T03:45:56.298Z,16.3
2019-02-16T03:46:58.739Z,16.3
2019-02-16T03:48:00.891Z,16.3
2019-02-16T03:49:03.306Z,16.3
2019-02-16T03:50:05.473Z,16.3
2019-02-16T03:51:07.906Z,16.3
2019-02-16T03:53:15.323Z,16.3
2019-02-16T03:54:17.477Z,16.3
2019-02-16T03:55:19.900Z,16.2
2019-02-16T03:56:22.043Z,16.4
2019-02-16T03:57:23.926Z,16.3
2019-02-16T03:58:26.096Z,16.4
2019-02-16T03:59:28.244Z,16.4
2019-02-16T04:00:30.402Z,16.4
2019-02-16T04:01:32.835Z,16.4
2019-02-16T04:02:35.646Z,16.3
2019-02-16T04:03:37.802Z,16.3
2019-02-16T04:04:40.223Z,16.3
2019-02-16T04:05:42.084Z,16.3
2019-02-16T04:06:44.437Z,16.3
2019-02-16T04:07:46.852Z,16.3
2019-02-16T04:08:49.520Z,16.3
2019-02-16T04:09:51.943Z,16.2
2019-02-16T04:10:54.106Z,16.3
2019-02-16T04:11:56.530Z,16.3
2019-02-16T04:12:58.965Z,16.3
2019-02-16T04:14:01.400Z,16.3
2019-02-16T04:15:03.835Z,16.3
2019-02-16T04:16:05.720Z,16.2
2019-02-16T04:17:07.874Z,16.2
2019-02-16T04:18:10.300Z,16.2
2019-02-16T04:19:12.447Z,16.1
2019-02-16T04:20:14.878Z,16.1
2019-02-16T04:21:17.001Z,16.1
2019-02-16T04:23:23.874Z,16.2
2019-02-16T04:24:26.032Z,16.2
2019-02-16T04:25:28.217Z,16.2
2019-02-16T04:26:30.632Z,16.1
2019-02-16T04:27:33.065Z,16.2
2019-02-16T04:28:35.203Z,16.1
2019-02-16T04:29:37.352Z,16.1
2019-02-16T04:30:39.784Z,16.1
2019-02-16T04:31:41.946Z,16
2019-02-16T04:32:44.405Z,16.1
2019-02-16T04:33:46.535Z,16.2
2019-02-16T04:34:48.553Z,16.1
2019-02-16T04:35:50.978Z,16
2019-02-16T04:36:53.394Z,16.2
2019-02-16T04:37:55.284Z,16.1
2019-02-16T04:38:57.723Z,16.2
2019-02-16T04:39:59.876Z,16
2019-02-16T04:41:02.332Z,16.1
2019-02-16T04:42:04.481Z,16.1
2019-02-16T04:43:06.373Z,16.1
2019-02-16T04:44:08.794Z,16
2019-02-16T04:45:10.948Z,16.1
2019-02-16T04:46:13.368Z,15.9
2019-02-16T04:47:15.256Z,16.1
2019-02-16T04:48:17.685Z,16
2019-02-16T04:49:19.840Z,16
2019-02-16T04:50:21.992Z,16.2
2019-02-16T04:51:23.841Z,16
2019-02-16T04:53:31.242Z,16
2019-02-16T04:54:33.393Z,15.9
2019-02-16T04:55:35.552Z,16.1
2019-02-16T04:56:37.976Z,16
2019-02-16T04:57:40.161Z,16.1
2019-02-16T04:58:42.833Z,16
2019-02-16T04:59:44.685Z,16
2019-02-16T05:00:47.104Z,16
2019-02-16T05:01:49.563Z,16
2019-02-16T05:02:51.726Z,16
2019-02-16T05:03:53.862Z,16.1
2019-02-16T05:04:56.315Z,16.1
2019-02-16T05:06:00.314Z,15.9
2019-02-16T05:07:02.763Z,16.1
2019-02-16T05:08:05.199Z,16
2019-02-16T05:09:07.633Z,16
2019-02-16T05:10:10.074Z,15.9
2019-02-16T05:11:11.933Z,16
2019-02-16T05:12:14.368Z,15.8
2019-02-16T05:13:16.819Z,16
2019-02-16T05:14:19.246Z,15.9
2019-02-16T05:15:21.390Z,16.1
2019-02-16T05:16:23.578Z,16
2019-02-16T05:17:25.735Z,16
2019-02-16T05:18:28.159Z,16.1
2019-02-16T05:19:30.023Z,16.1
2019-02-16T05:20:32.456Z,16.1
2019-02-16T05:21:34.601Z,16
2019-02-16T05:23:41.734Z,16
2019-02-16T05:24:44.153Z,16.1
2019-02-16T05:25:46.305Z,16.1
2019-02-16T05:26:47.894Z,16.1
2019-02-16T05:27:50.059Z,16
2019-02-16T05:28:52.215Z,16.1
2019-02-16T05:29:54.091Z,15.9
2019-02-16T05:30:56.522Z,15.9
2019-02-16T05:31:58.960Z,16
2019-02-16T05:33:01.387Z,16
2019-02-16T05:34:03.817Z,16.1
2019-02-16T05:35:06.259Z,15.9
2019-02-16T05:36:08.404Z,16.1
2019-02-16T05:37:10.567Z,16
2019-02-16T05:38:12.725Z,16
2019-02-16T05:39:15.156Z,15.9
2019-02-16T05:40:17.565Z,15.8
2019-02-16T05:41:20.004Z,16
2019-02-16T05:42:21.903Z,16
2019-02-16T05:43:23.494Z,15.9
2019-02-16T05:44:25.635Z,16.1
2019-02-16T05:45:28.069Z,16
2019-02-16T05:46:30.486Z,15.9
2019-02-16T05:47:32.929Z,15.9
2019-02-16T05:48:35.375Z,15.9
2019-02-16T05:49:37.804Z,16
2019-02-16T05:50:39.954Z,16.1
2019-02-16T05:51:42.084Z,15.9
2019-02-16T05:52:53.693Z,16.1
2019-02-16T05:53:49.700Z,15.9
2019-02-16T05:54:52.121Z,15.8
2019-02-16T05:55:54.285Z,16
2019-02-16T05:56:55.869Z,16
2019-02-16T05:57:58.297Z,15.8
2019-02-16T05:59:00.720Z,16
2019-02-16T06:00:03.149Z,15.9
2019-02-16T06:01:05.573Z,15.8
2019-02-16T06:02:07.733Z,16
2019-02-16T06:03:10.157Z,15.9
2019-02-16T06:04:12.583Z,16
2019-02-16T06:05:15.022Z,16.1
2019-02-16T06:06:17.161Z,15.9
2019-02-16T06:07:19.584Z,16
2019-02-16T06:08:22.019Z,15.8
2019-02-16T06:09:24.439Z,15.9
2019-02-16T06:10:26.635Z,16
2019-02-16T06:11:29.063Z,16
2019-02-16T06:12:31.496Z,15.8
2019-02-16T06:13:33.929Z,15.8
2019-02-16T06:14:36.353Z,15.9
2019-02-16T06:15:38.515Z,15.8
2019-02-16T06:16:40.946Z,16.1
2019-02-16T06:17:42.816Z,15.9
2019-02-16T06:18:44.963Z,15.9
2019-02-16T06:19:47.121Z,15.9
2019-02-16T06:20:49.278Z,15.8
2019-02-16T06:21:51.720Z,16
2019-02-16T06:23:03.413Z,15.9
2019-02-16T06:23:59.354Z,15.9
2019-02-16T06:25:01.789Z,15.9
2019-02-16T06:26:04.226Z,15.8
2019-02-16T06:27:06.381Z,16
2019-02-16T06:28:08.814Z,15.9
2019-02-16T06:29:11.235Z,16
2019-02-16T06:30:13.661Z,15.9
2019-02-16T06:31:15.816Z,15.9
2019-02-16T06:32:18.247Z,15.8
2019-02-16T06:33:20.406Z,15.9
2019-02-16T06:34:22.285Z,15.8
2019-02-16T06:35:24.713Z,15.8
2019-02-16T06:36:26.881Z,15.9
2019-02-16T06:37:29.027Z,15.8
2019-02-16T06:38:30.895Z,15.8
2019-02-16T06:39:33.320Z,15.9
2019-02-16T06:40:35.466Z,15.9
2019-02-16T06:41:37.623Z,15.8
2019-02-16T06:42:39.228Z,15.9
2019-02-16T06:43:41.421Z,15.8
2019-02-16T06:44:43.827Z,15.9
2019-02-16T06:45:46.252Z,15.8
2019-02-16T06:46:48.669Z,15.8
2019-02-16T06:47:51.098Z,15.8
2019-02-16T06:48:53.235Z,15.9
2019-02-16T06:49:55.651Z,15.8
2019-02-16T06:50:57.813Z,15.8
2019-02-16T06:51:59.945Z,15.8
2019-02-16T06:53:01.811Z,15.8
2019-02-16T06:54:03.938Z,15.8
2019-02-16T06:55:05.823Z,15.9
2019-02-16T06:56:07.967Z,15.8
2019-02-16T06:57:10.158Z,16
2019-02-16T06:58:12.324Z,15.9
2019-02-16T06:59:13.974Z,15.9
2019-02-16T07:00:16.108Z,15.9
2019-02-16T07:01:18.277Z,15.8
2019-02-16T07:02:20.743Z,15.9
2019-02-16T07:03:22.891Z,15.9
2019-02-16T07:04:25.086Z,15.8
2019-02-16T07:05:27.226Z,15.8
2019-02-16T07:06:29.667Z,15.9
2019-02-16T07:07:32.222Z,15.8
2019-02-16T07:08:34.104Z,15.8
2019-02-16T07:09:36.565Z,15.8
2019-02-16T07:10:38.731Z,15.8
2019-02-16T07:11:41.189Z,15.9
2019-02-16T07:12:43.652Z,15.8
2019-02-16T07:13:45.224Z,15.8
2019-02-16T07:14:47.385Z,15.8
2019-02-16T07:15:49.280Z,15.8
2019-02-16T07:16:51.742Z,15.9
2019-02-16T07:17:54.184Z,15.8
2019-02-16T07:18:56.605Z,15.9
2019-02-16T07:19:58.766Z,15.9
2019-02-16T07:21:01.087Z,15.8
2019-02-16T07:22:03.261Z,15.8
2019-02-16T07:23:05.131Z,15.8
2019-02-16T07:24:07.279Z,15.9
2019-02-16T07:25:09.728Z,15.9
2019-02-16T07:26:11.585Z,15.8
2019-02-16T07:27:13.467Z,15.9
2019-02-16T07:28:15.895Z,15.8
2019-02-16T07:29:18.321Z,15.8
2019-02-16T07:30:20.763Z,15.8
2019-02-16T07:31:23.188Z,15.8
2019-02-16T07:32:25.338Z,15.8
2019-02-16T07:33:27.484Z,15.8
2019-02-16T07:34:29.915Z,15.7
2019-02-16T07:35:31.819Z,15.8
2019-02-16T07:36:33.989Z,15.8
2019-02-16T07:37:36.141Z,15.8
2019-02-16T07:38:38.582Z,15.7
2019-02-16T07:39:41.031Z,15.8
2019-02-16T07:40:42.910Z,15.8
2019-02-16T07:41:45.133Z,15.8
2019-02-16T07:42:47.555Z,15.9
2019-02-16T07:43:49.414Z,15.8
2019-02-16T07:44:51.014Z,15.7
2019-02-16T07:45:53.430Z,15.8
2019-02-16T07:46:55.601Z,15.8
2019-02-16T07:47:57.765Z,15.8
2019-02-16T07:48:59.925Z,15.9
2019-02-16T07:50:02.077Z,15.8
2019-02-16T07:51:04.512Z,15.8
2019-02-16T07:52:06.674Z,15.8
2019-02-16T07:53:09.108Z,15.8
2019-02-16T07:54:11.270Z,15.8
2019-02-16T07:55:13.156Z,15.8
2019-02-16T07:56:15.620Z,15.8
2019-02-16T07:57:18.059Z,15.8
2019-02-16T07:58:20.211Z,15.8
2019-02-16T07:59:22.639Z,15.8
2019-02-16T08:00:25.091Z,15.8
2019-02-16T08:01:27.246Z,15.8
2019-02-16T08:02:29.668Z,15.9
2019-02-16T08:03:32.096Z,15.8
2019-02-16T08:04:34.525Z,15.8
2019-02-16T08:05:36.958Z,15.8
2019-02-16T08:06:38.879Z,15.9
2019-02-16T08:07:43.384Z,15.8
2019-02-16T08:08:45.885Z,15.9
2019-02-16T08:09:48.315Z,15.9
2019-02-16T08:10:50.180Z,15.8
2019-02-16T08:11:52.402Z,15.8
2019-02-16T08:12:55.020Z,15.8
2019-02-16T08:13:58.721Z,15.8
2019-02-16T08:15:02.203Z,15.8
2019-02-16T08:16:04.557Z,15.8
2019-02-16T08:17:06.785Z,15.9
2019-02-16T08:18:10.333Z,15.8
2019-02-16T08:19:12.494Z,15.7
2019-02-16T08:20:14.964Z,15.8
2019-02-16T08:21:17.403Z,15.8
2019-02-16T08:22:19.844Z,15.8
2019-02-16T08:23:21.743Z,15.9
2019-02-16T08:24:23.905Z,15.8
2019-02-16T08:25:25.774Z,15.8
2019-02-16T08:26:27.946Z,15.9
2019-02-16T08:27:30.075Z,15.8
2019-02-16T08:28:32.509Z,15.8
2019-02-16T08:29:34.944Z,15.8
2019-02-16T08:30:37.375Z,15.8
2019-02-16T08:31:39.805Z,15.8
2019-02-16T08:32:42.236Z,15.7
2019-02-16T08:33:44.405Z,15.8
2019-02-16T08:34:46.283Z,15.8
2019-02-16T08:35:48.452Z,15.8
2019-02-16T08:36:50.883Z,15.8
2019-02-16T08:37:52.502Z,15.8
2019-02-16T08:38:54.935Z,15.7
2019-02-16T08:39:57.090Z,15.7
2019-02-16T08:40:59.529Z,15.7
2019-02-16T08:42:01.955Z,15.7
2019-02-16T08:43:03.857Z,15.8
2019-02-16T08:44:06.285Z,15.7
2019-02-16T08:45:08.717Z,15.8
2019-02-16T08:46:11.149Z,15.8
2019-02-16T08:47:13.026Z,15.8
2019-02-16T08:48:15.453Z,15.8
2019-02-16T08:49:17.944Z,15.8
2019-02-16T08:50:20.372Z,15.8
2019-02-16T08:51:22.798Z,15.8
2019-02-16T08:52:25.235Z,15.8
2019-02-16T08:53:27.122Z,15.8
2019-02-16T08:54:29.584Z,15.8
2019-02-16T08:55:32.028Z,15.8
2019-02-16T08:56:34.446Z,15.8
2019-02-16T08:57:36.896Z,15.9
2019-02-16T08:58:39.344Z,15.8
2019-02-16T08:59:41.489Z,15.8
2019-02-16T09:00:43.682Z,15.8
2019-02-16T09:01:45.836Z,15.8
2019-02-16T09:02:48.003Z,15.8
2019-02-16T09:03:50.186Z,15.8
2019-02-16T09:04:52.360Z,15.8
2019-02-16T09:05:54.238Z,15.8
2019-02-16T09:06:58.171Z,15.8
2019-02-16T09:08:00.626Z,15.8
2019-02-16T09:09:02.782Z,15.8
2019-02-16T09:10:05.204Z,15.8
2019-02-16T09:11:07.644Z,15.7
2019-02-16T09:12:09.539Z,15.9
2019-02-16T09:13:11.446Z,15.8
2019-02-16T09:14:13.365Z,15.8
2019-02-16T09:15:14.976Z,15.8
2019-02-16T09:16:16.855Z,15.8
2019-02-16T09:17:19.284Z,15.7
2019-02-16T09:18:21.721Z,15.8
2019-02-16T09:19:24.161Z,15.9
2019-02-16T09:20:26.311Z,15.8
2019-02-16T09:21:28.454Z,15.8
2019-02-16T09:22:30.889Z,15.9
2019-02-16T09:23:32.776Z,15.8
2019-02-16T09:24:34.935Z,15.8
2019-02-16T09:25:37.103Z,15.8
2019-02-16T09:26:39.262Z,15.8
2019-02-16T09:27:41.696Z,15.8
2019-02-16T09:28:43.596Z,15.8
2019-02-16T09:29:45.176Z,15.8
2019-02-16T09:30:47.608Z,15.9
2019-02-16T09:31:50.054Z,15.7
2019-02-16T09:32:52.236Z,15.8
2019-02-16T09:33:54.664Z,15.8
2019-02-16T09:34:57.095Z,15.9
2019-02-16T09:35:59.525Z,15.8
2019-02-16T09:37:01.433Z,15.8
2019-02-16T09:38:03.868Z,15.8
2019-02-16T09:39:05.733Z,15.8
2019-02-16T09:40:07.635Z,15.8
2019-02-16T09:41:09.853Z,15.8
2019-02-16T09:42:12.279Z,15.8
2019-02-16T09:43:14.734Z,15.9
2019-02-16T09:44:16.885Z,15.9
2019-02-16T09:45:19.352Z,15.9
2019-02-16T09:46:21.494Z,15.8
2019-02-16T09:47:23.937Z,15.8
2019-02-16T09:48:26.366Z,15.8
2019-02-16T09:49:28.804Z,15.8
2019-02-16T09:50:30.669Z,15.8
2019-02-16T09:51:32.831Z,15.8
2019-02-16T09:52:34.961Z,15.8
2019-02-16T09:53:37.113Z,15.9
2019-02-16T09:54:39.541Z,15.8
2019-02-16T09:55:41.418Z,15.8
2019-02-16T09:56:43.876Z,15.8
2019-02-16T09:57:46.027Z,15.8
2019-02-16T09:58:48.460Z,15.9
2019-02-16T09:59:50.595Z,15.8
2019-02-16T10:00:52.207Z,15.8
2019-02-16T10:01:54.075Z,15.8
2019-02-16T10:02:56.250Z,15.8
2019-02-16T10:03:58.410Z,15.8
2019-02-16T10:05:00.939Z,15.9
2019-02-16T10:06:03.381Z,15.8
2019-02-16T10:07:05.813Z,15.8
2019-02-16T10:08:07.705Z,15.8
2019-02-16T10:09:09.854Z,15.9
2019-02-16T10:10:12.294Z,15.8
2019-02-16T10:11:14.177Z,15.9
2019-02-16T10:12:16.074Z,15.9
2019-02-16T10:13:18.236Z,15.8
2019-02-16T10:14:20.405Z,15.9
2019-02-16T10:15:22.908Z,15.8
2019-02-16T10:16:25.336Z,15.8
2019-02-16T10:17:27.756Z,16
2019-02-16T10:18:30.198Z,15.8
2019-02-16T10:19:32.076Z,15.8
2019-02-16T10:20:34.240Z,15.8
2019-02-16T10:21:36.674Z,16
2019-02-16T10:22:40.655Z,15.9
2019-02-16T10:23:42.814Z,15.9
2019-02-16T10:24:45.022Z,15.9
2019-02-16T10:25:47.442Z,16
2019-02-16T10:26:49.901Z,15.9
2019-02-16T10:27:52.323Z,15.9
2019-02-16T10:28:54.764Z,15.8
2019-02-16T10:29:57.192Z,15.8
2019-02-16T10:31:01.227Z,15.8
2019-02-16T10:32:03.694Z,15.9
2019-02-16T10:33:06.135Z,16
2019-02-16T10:34:08.567Z,15.8
2019-02-16T10:35:10.989Z,16
2019-02-16T10:36:13.604Z,15.8
2019-02-16T10:37:15.737Z,15.9
2019-02-16T10:38:18.171Z,15.8
2019-02-16T10:39:20.604Z,16
2019-02-16T10:40:23.053Z,16
2019-02-16T10:41:25.205Z,15.9
2019-02-16T10:42:27.624Z,15.8
2019-02-16T10:43:30.052Z,15.8
2019-02-16T10:44:32.496Z,15.8
2019-02-16T10:45:34.370Z,16
2019-02-16T10:46:36.544Z,15.9
2019-02-16T10:47:38.974Z,16
2019-02-16T10:48:41.135Z,15.8
2019-02-16T10:49:43.288Z,15.9
2019-02-16T10:50:45.434Z,15.8
2019-02-16T10:51:47.880Z,15.9
2019-02-16T10:52:50.306Z,15.9
2019-02-16T10:53:52.733Z,15.9
2019-02-16T10:54:54.886Z,15.8
2019-02-16T10:55:57.056Z,15.8
2019-02-16T10:56:59.486Z,15.9
2019-02-16T10:58:01.655Z,15.9
2019-02-16T10:59:03.555Z,15.8
2019-02-16T11:00:05.708Z,15.8
2019-02-16T11:01:08.175Z,15.9
2019-02-16T11:02:10.078Z,15.9
2019-02-16T11:03:12.204Z,15.8
2019-02-16T11:04:14.638Z,15.8
2019-02-16T11:05:17.081Z,15.8
2019-02-16T11:06:19.259Z,15.9
2019-02-16T11:07:21.425Z,15.8
2019-02-16T11:08:23.858Z,15.8
2019-02-16T11:09:26.335Z,15.8
2019-02-16T11:10:28.492Z,15.9
2019-02-16T11:11:30.700Z,15.9
2019-02-16T11:12:32.577Z,15.9
2019-02-16T11:13:34.732Z,15.8
2019-02-16T11:14:37.165Z,16
2019-02-16T11:15:39.594Z,15.8
2019-02-16T11:16:41.476Z,16
2019-02-16T11:17:43.383Z,15.9
2019-02-16T11:18:45.812Z,15.9
2019-02-16T11:19:48.250Z,16
2019-02-16T11:20:50.393Z,15.9
2019-02-16T11:21:52.845Z,16
2019-02-16T11:22:55.275Z,15.9
2019-02-16T11:23:57.431Z,15.9
2019-02-16T11:24:59.367Z,15.8
2019-02-16T11:26:01.267Z,16
2019-02-16T11:27:03.696Z,15.9
2019-02-16T11:28:05.854Z,15.8
2019-02-16T11:29:08.278Z,15.8
2019-02-16T11:30:12.635Z,15.8
2019-02-16T11:31:15.069Z,15.9
2019-02-16T11:32:17.489Z,16.1
2019-02-16T11:33:19.922Z,15.9
2019-02-16T11:34:22.372Z,15.9
2019-02-16T11:35:24.531Z,16
2019-02-16T11:36:26.675Z,15.8
2019-02-16T11:37:28.540Z,15.9
2019-02-16T11:38:30.965Z,15.9
2019-02-16T11:39:33.395Z,15.9
2019-02-16T11:40:35.278Z,15.9
2019-02-16T11:41:37.705Z,16
2019-02-16T11:42:39.832Z,15.9
2019-02-16T11:43:41.985Z,15.9
2019-02-16T11:44:43.904Z,15.9
2019-02-16T11:45:46.054Z,16
2019-02-16T11:46:48.489Z,16
2019-02-16T11:47:50.926Z,15.8
2019-02-16T11:48:53.344Z,15.9
2019-02-16T11:49:55.800Z,15.9
2019-02-16T11:50:58.237Z,15.9
2019-02-16T11:52:00.127Z,15.9
2019-02-16T11:53:02.302Z,15.8
2019-02-16T11:54:04.473Z,15.9
2019-02-16T11:55:06.703Z,15.9
2019-02-16T11:56:09.136Z,15.8
2019-02-16T11:57:11.556Z,16
2019-02-16T11:58:13.990Z,15.9
2019-02-16T11:59:16.153Z,15.8
2019-02-16T12:00:18.595Z,15.8
2019-02-16T12:01:21.036Z,15.9
2019-02-16T12:02:23.467Z,15.9
2019-02-16T12:03:25.348Z,15.9
2019-02-16T12:04:27.794Z,15.9
2019-02-16T12:05:30.237Z,15.9
2019-02-16T12:06:32.404Z,15.9
2019-02-16T12:07:34.573Z,15.9
2019-02-16T12:08:36.745Z,15.8
2019-02-16T12:09:39.178Z,15.9
2019-02-16T12:10:41.645Z,15.8
2019-02-16T12:11:44.078Z,15.8
2019-02-16T12:12:46.507Z,15.9
2019-02-16T12:13:48.668Z,15.9
2019-02-16T12:14:50.529Z,15.9
2019-02-16T12:15:52.947Z,15.8
2019-02-16T12:16:55.377Z,15.9
2019-02-16T12:17:57.805Z,15.9
2019-02-16T12:18:59.977Z,15.9
2019-02-16T12:20:02.155Z,15.9
2019-02-16T12:21:04.316Z,15.8
2019-02-16T12:22:06.755Z,15.9
2019-02-16T12:23:08.939Z,15.8
2019-02-16T12:24:11.109Z,15.9
2019-02-16T12:25:13.544Z,15.9
2019-02-16T12:26:15.971Z,15.9
2019-02-16T12:27:18.135Z,15.9
2019-02-16T12:28:22.089Z,15.8
2019-02-16T12:29:24.262Z,15.9
2019-02-16T12:30:26.693Z,15.9
2019-02-16T12:31:28.855Z,15.9
2019-02-16T12:32:31.287Z,15.9
2019-02-16T12:33:33.721Z,15.8
2019-02-16T12:34:36.157Z,15.9
2019-02-16T12:35:38.583Z,15.8
2019-02-16T12:36:41.019Z,15.8
2019-02-16T12:37:42.877Z,16
2019-02-16T12:38:45.032Z,15.9
2019-02-16T12:39:47.222Z,15.9
2019-02-16T12:40:49.409Z,15.9
2019-02-16T12:41:51.838Z,15.9
2019-02-16T12:42:53.999Z,16
2019-02-16T12:43:56.135Z,15.8
2019-02-16T12:44:58.308Z,15.9
2019-02-16T12:46:00.442Z,16
2019-02-16T12:47:02.876Z,15.8
2019-02-16T12:48:05.303Z,15.9
2019-02-16T12:49:07.728Z,15.9
2019-02-16T12:50:09.886Z,15.9
2019-02-16T12:51:12.334Z,15.9
2019-02-16T12:52:14.780Z,15.9
2019-02-16T12:53:16.957Z,15.9
2019-02-16T12:54:19.390Z,15.9
2019-02-16T12:55:21.534Z,15.9
2019-02-16T12:56:23.973Z,15.8
2019-02-16T12:57:26.423Z,15.8
2019-02-16T12:58:28.848Z,16
2019-02-16T12:59:30.751Z,15.8
2019-02-16T13:00:33.179Z,15.9
2019-02-16T13:01:35.604Z,16
2019-02-16T13:02:38.042Z,15.7
2019-02-16T13:03:40.465Z,15.9
2019-02-16T13:04:42.640Z,15.9
2019-02-16T13:05:45.062Z,15.8
2019-02-16T13:06:46.946Z,16
2019-02-16T13:07:49.378Z,15.9
2019-02-16T13:08:51.806Z,15.8
2019-02-16T13:09:54.225Z,15.8
2019-02-16T13:10:56.686Z,16
2019-02-16T13:11:58.939Z,15.9
2019-02-16T13:13:01.510Z,15.9
2019-02-16T13:14:03.933Z,15.8
2019-02-16T13:15:06.380Z,15.8
2019-02-16T13:16:08.529Z,15.9
2019-02-16T13:17:10.427Z,15.9
2019-02-16T13:18:12.846Z,15.9
2019-02-16T13:19:15.287Z,16
2019-02-16T13:20:17.715Z,15.8
2019-02-16T13:21:20.157Z,16
2019-02-16T13:22:22.300Z,15.9
2019-02-16T13:23:24.726Z,15.9
2019-02-16T13:24:26.923Z,15.9
2019-02-16T13:25:29.353Z,15.8
2019-02-16T13:26:31.490Z,16
2019-02-16T13:27:33.686Z,16
2019-02-16T13:28:36.106Z,16
2019-02-16T13:29:38.534Z,16
2019-02-16T13:30:40.981Z,15.8
2019-02-16T13:31:43.408Z,16
2019-02-16T13:32:45.855Z,15.8
2019-02-16T13:33:48.017Z,15.9
2019-02-16T13:34:50.449Z,15.8
2019-02-16T13:35:52.646Z,15.9
2019-02-16T13:36:54.815Z,15.8
2019-02-16T13:37:56.987Z,15.9
2019-02-16T13:38:59.172Z,15.8
2019-02-16T13:40:01.340Z,16
2019-02-16T13:41:03.500Z,15.8
2019-02-16T13:42:05.927Z,15.8
2019-02-16T13:43:08.366Z,15.8
2019-02-16T13:44:10.787Z,15.9
2019-02-16T13:45:13.206Z,15.8
2019-02-16T13:46:15.637Z,15.9
2019-02-16T13:47:17.794Z,15.8
2019-02-16T13:48:20.211Z,15.8
2019-02-16T13:49:21.847Z,15.8
2019-02-16T13:50:24.279Z,15.8
2019-02-16T13:51:26.453Z,15.8
2019-02-16T13:52:28.875Z,15.7
2019-02-16T13:53:30.777Z,15.8
2019-02-16T13:54:32.663Z,15.7
2019-02-16T13:55:36.776Z,15.8
2019-02-16T13:56:38.955Z,15.8
2019-02-16T13:57:41.114Z,15.8
2019-02-16T13:58:43.545Z,15.8
2019-02-16T13:59:45.980Z,15.7
2019-02-16T14:00:48.139Z,15.8